createdAt,value
2019-05-09T00:01:18.098Z,22.24
2019-05-09T00:06:23.764Z,22.24
2019-05-09T00:11:26.744Z,22.24
2019-05-09T00:16:30.199Z,22.23
2019-05-09T00:21:53.536Z,22.23
2019-05-09T00:26:56.869Z,22.23
2019-05-09T00:32:13.563Z,22.23
2019-05-09T00:37:16.392Z,22.21
2019-05-09T00:42:19.847Z,22.22
2019-05-09T00:47:24.944Z,22.22
2019-05-09T00:52:28.399Z,22.21
2019-05-09T00:57:34.314Z,22.22
2019-05-09T01:02:37.765Z,22.22
2019-05-09T01:07:43.107Z,22.21
2019-05-09T01:12:46.405Z,22.21
2019-05-09T01:17:49.870Z,22.22
2019-05-09T01:22:54.055Z,22.20
2019-05-09T01:27:57.670Z,22.20
2019-05-09T01:33:08.291Z,22.20
2019-05-09T01:38:13.997Z,22.20
2019-05-09T01:43:16.941Z,22.19
2019-05-09T01:48:20.406Z,22.19
2019-05-09T01:53:25.500Z,22.20
2019-05-09T01:58:31.071Z,22.20
2019-05-09T02:03:34.604Z,22.20
2019-05-09T02:08:38.052Z,22.20
2019-05-09T02:13:41.510Z,22.20
2019-05-09T02:18:46.603Z,22.20
2019-05-09T02:23:50.056Z,22.19
2019-05-09T02:28:53.932Z,22.19
2019-05-09T02:33:57.458Z,22.19
2019-05-09T02:39:00.917Z,22.19
2019-05-09T02:44:04.638Z,22.18
2019-05-09T02:49:09.014Z,22.18
2019-05-09T02:54:12.626Z,22.19
2019-05-09T02:59:23.709Z,22.17
2019-05-09T03:04:28.413Z,22.17
2019-05-09T03:09:32.253Z,22.17
2019-05-09T03:14:38.319Z,22.18
2019-05-09T03:19:40.885Z,22.17
2019-05-09T03:24:44.340Z,22.18
2019-05-09T03:29:49.444Z,22.18
2019-05-09T03:34:52.891Z,22.18
2019-05-09T03:39:58.072Z,22.17
2019-05-09T03:45:01.615Z,22.17
2019-05-09T03:50:09.132Z,22.17
2019-05-09T03:55:14.659Z,22.17
2019-05-09T04:00:18.523Z,22.19
2019-05-09T04:05:21.976Z,22.17
2019-05-09T04:10:25.427Z,22.19
2019-05-09T04:15:28.879Z,22.17
2019-05-09T04:20:32.331Z,22.18
2019-05-09T04:25:37.731Z,22.16
2019-05-09T04:30:41.266Z,22.16
2019-05-09T04:35:44.727Z,22.16
2019-05-09T04:40:48.928Z,22.16
2019-05-09T04:45:54.058Z,22.14
2019-05-09T04:50:59.472Z,22.16
2019-05-09T04:56:10.331Z,22.14
2019-05-09T05:01:31.637Z,22.14
2019-05-09T05:06:35.091Z,22.14
2019-05-09T05:11:38.543Z,22.14
2019-05-09T05:16:42.007Z,22.14
2019-05-09T05:21:45.459Z,22.14
2019-05-09T05:26:48.922Z,22.13
2019-05-09T05:31:53.246Z,22.13
2019-05-09T05:36:58.188Z,22.13
2019-05-09T05:42:01.844Z,22.13
2019-05-09T05:47:07.702Z,22.12
2019-05-09T05:52:11.278Z,22.13
2019-05-09T05:57:14.727Z,22.12
2019-05-09T06:02:18.183Z,22.13
2019-05-09T06:07:21.647Z,22.13
2019-05-09T06:12:27.455Z,22.13
2019-05-09T06:17:30.285Z,22.13
2019-05-09T06:22:33.743Z,22.13
2019-05-09T06:27:37.635Z,22.13
2019-05-09T06:32:41.145Z,22.13
2019-05-09T06:37:44.598Z,22.13
2019-05-09T06:42:48.992Z,22.14
2019-05-09T06:47:52.487Z,22.15
2019-05-09T06:52:57.306Z,22.16
2019-05-09T06:58:02.521Z,22.16
2019-05-09T07:03:10.638Z,22.18
2019-05-09T07:08:15.735Z,22.19
2019-05-09T07:13:19.206Z,22.20
2019-05-09T07:18:22.656Z,22.21
2019-05-09T07:23:28.057Z,22.24
2019-05-09T07:28:31.302Z,22.03
2019-05-09T07:33:41.995Z,21.60
2019-05-09T07:38:47.617Z,21.45
2019-05-09T07:43:50.645Z,21.48
2019-05-09T07:48:57.754Z,21.48
2019-05-09T07:54:00.664Z,21.44
2019-05-09T07:59:04.122Z,21.40
2019-05-09T08:04:07.745Z,21.41
2019-05-09T08:09:11.211Z,21.34
2019-05-09T08:14:14.668Z,21.40
2019-05-09T08:19:18.220Z,21.46
2019-05-09T08:24:21.656Z,21.49
2019-05-09T08:29:25.119Z,21.55
2019-05-09T08:34:28.630Z,21.61
2019-05-09T08:39:32.043Z,21.68
2019-05-09T08:44:37.756Z,21.75
2019-05-09T08:49:49.623Z,21.82
2019-05-09T08:54:54.811Z,21.88
2019-05-09T08:59:59.072Z,21.94
2019-05-09T09:05:02.823Z,21.99
2019-05-09T09:10:08.421Z,22.02
2019-05-09T09:15:11.874Z,22.03
2019-05-09T09:20:18.007Z,22.06
2019-05-09T09:25:20.594Z,22.08
2019-05-09T09:30:25.205Z,22.10
2019-05-09T09:35:28.964Z,22.13
2019-05-09T09:40:32.424Z,22.14
2019-05-09T09:45:37.799Z,22.19
2019-05-09T09:50:41.072Z,22.26
2019-05-09T09:55:44.529Z,22.32
2019-05-09T10:00:51.261Z,22.35
2019-05-09T10:05:54.723Z,22.37
2019-05-09T10:10:59.127Z,22.41
2019-05-09T10:16:04.292Z,22.43
2019-05-09T10:21:15.053Z,22.44
2019-05-09T10:26:18.523Z,22.46
2019-05-09T10:31:21.981Z,22.49
2019-05-09T10:36:27.654Z,22.52
2019-05-09T10:41:30.623Z,22.53
2019-05-09T10:46:57.282Z,22.55
2019-05-09T10:51:58.049Z,22.57
2019-05-09T10:57:01.358Z,22.58
2019-05-09T11:02:04.811Z,22.59
2019-05-09T11:07:08.336Z,22.61
2019-05-09T11:12:11.791Z,22.62
2019-05-09T11:17:19.306Z,22.63
2019-05-09T11:22:23.445Z,22.65
2019-05-09T11:27:28.122Z,22.66
2019-05-09T11:32:30.883Z,22.67
2019-05-09T11:37:34.342Z,22.69
2019-05-09T11:42:38.232Z,22.69
2019-05-09T11:47:46.186Z,22.71
2019-05-09T11:52:49.060Z,22.72
2019-05-09T11:57:52.369Z,22.73
2019-05-09T12:02:58.166Z,22.73
2019-05-09T12:08:01.011Z,22.75
2019-05-09T12:13:04.474Z,22.77
2019-05-09T12:18:11.323Z,22.77
2019-05-09T12:23:13.183Z,22.75
2019-05-09T12:28:18.923Z,22.78
2019-05-09T12:33:21.826Z,22.80
2019-05-09T12:38:27.083Z,22.81
2019-05-09T12:43:30.489Z,22.84
2019-05-09T12:48:33.950Z,22.85
2019-05-09T12:53:39.625Z,22.87
2019-05-09T12:58:42.591Z,22.88
2019-05-09T13:03:48.253Z,22.89
2019-05-09T13:08:51.246Z,22.89
2019-05-09T13:13:54.723Z,22.89
2019-05-09T13:19:02.809Z,22.89
2019-05-09T13:24:08.318Z,22.88
2019-05-09T13:29:11.616Z,22.87
2019-05-09T13:34:15.076Z,22.87
2019-05-09T13:39:18.613Z,22.88
2019-05-09T13:44:22.076Z,22.89
2019-05-09T13:49:25.517Z,22.91
2019-05-09T13:54:28.984Z,22.94
2019-05-09T13:59:32.441Z,22.95
2019-05-09T14:04:39.160Z,22.97
2019-05-09T14:09:41.115Z,22.97
2019-05-09T14:14:45.337Z,22.96
2019-05-09T14:19:51.006Z,22.96
2019-05-09T14:24:53.967Z,22.95
2019-05-09T14:29:59.280Z,22.96
2019-05-09T14:35:03.109Z,22.96
2019-05-09T14:40:10.089Z,22.95
2019-05-09T14:45:11.886Z,22.95
2019-05-09T14:50:17.906Z,22.98
2019-05-09T14:55:20.751Z,23.01
2019-05-09T15:00:24.446Z,23.02
2019-05-09T15:05:28.058Z,23.03
2019-05-09T15:10:31.547Z,23.03
2019-05-09T15:15:35.011Z,23.04
2019-05-09T15:20:38.460Z,23.05
2019-05-09T15:25:41.928Z,23.05
2019-05-09T15:30:48.750Z,23.06
2019-05-09T15:35:50.580Z,23.06
2019-05-09T15:40:54.079Z,23.06
2019-05-09T15:46:02.036Z,23.05
2019-05-09T15:51:07.510Z,23.03
2019-05-09T15:56:10.693Z,23.03
2019-05-09T16:01:14.153Z,23.02
2019-05-09T16:06:19.892Z,23.03
2019-05-09T16:11:22.817Z,23.02
2019-05-09T16:16:28.621Z,23.03
2019-05-09T16:21:31.467Z,23.02
2019-05-09T16:26:34.926Z,23.02
2019-05-09T16:31:38.979Z,23.02
2019-05-09T16:36:42.532Z,23.03
2019-05-09T16:41:48.484Z,23.09
2019-05-09T16:46:51.615Z,23.10
2019-05-09T16:51:55.071Z,23.11
2019-05-09T16:57:00.013Z,23.11
2019-05-09T17:02:17.781Z,23.12
2019-05-09T17:07:08.932Z,23.12
2019-05-09T17:12:12.656Z,23.10
2019-05-09T17:17:17.807Z,23.08
2019-05-09T17:22:27.267Z,23.08
2019-05-09T17:27:30.704Z,23.07
2019-05-09T17:32:34.699Z,23.05
2019-05-09T17:37:38.176Z,23.03
2019-05-09T17:42:41.817Z,23.02
2019-05-09T17:47:45.279Z,22.99
2019-05-09T17:52:48.732Z,22.98
2019-05-09T17:57:52.203Z,22.96
2019-05-09T18:02:57.861Z,22.97
2019-05-09T18:08:00.847Z,22.95
2019-05-09T18:13:04.371Z,22.93
2019-05-09T18:18:07.901Z,22.93
2019-05-09T18:23:11.350Z,22.94
2019-05-09T18:28:14.877Z,22.92
2019-05-09T18:33:22.779Z,22.90
2019-05-09T18:38:32.012Z,22.90
2019-05-09T18:43:35.473Z,22.87
2019-05-09T18:48:39.104Z,22.87
2019-05-09T18:53:42.566Z,22.87
2019-05-09T18:58:46.094Z,22.87
2019-05-09T19:03:49.552Z,22.85
2019-05-09T19:08:53.029Z,22.86
2019-05-09T19:13:57.247Z,22.85
2019-05-09T19:19:18.524Z,22.84
2019-05-09T19:24:21.988Z,22.83
2019-05-09T19:29:25.531Z,22.83
2019-05-09T19:34:28.990Z,22.82
2019-05-09T19:39:32.454Z,22.82
2019-05-09T19:44:35.940Z,22.81
2019-05-09T19:49:39.422Z,22.82
2019-05-09T19:54:42.898Z,22.81
2019-05-09T19:59:46.382Z,22.81
2019-05-09T20:04:49.846Z,22.80
2019-05-09T20:09:55.135Z,22.80
2019-05-09T20:14:58.616Z,22.79
2019-05-09T20:20:02.159Z,22.78
2019-05-09T20:25:08.859Z,22.78
2019-05-09T20:30:12.891Z,22.78
2019-05-09T20:35:16.348Z,22.77
2019-05-09T20:40:20.008Z,22.77
2019-05-09T20:45:23.694Z,22.76
2019-05-09T20:50:27.346Z,22.76
2019-05-09T20:55:30.991Z,22.77
2019-05-09T21:00:34.632Z,22.75
2019-05-09T21:05:38.278Z,22.76
2019-05-09T21:10:41.916Z,22.76
2019-05-09T21:15:45.554Z,22.75
2019-05-09T21:20:49.198Z,22.76
2019-05-09T21:25:52.835Z,22.74
2019-05-09T21:30:56.474Z,22.75
2019-05-09T21:35:59.929Z,22.75
2019-05-09T21:41:03.387Z,22.75
2019-05-09T21:46:06.843Z,22.75
2019-05-09T21:51:10.303Z,22.74
2019-05-09T21:56:13.758Z,22.74
2019-05-09T22:01:18.941Z,22.74
2019-05-09T22:06:22.490Z,22.74
2019-05-09T22:11:25.949Z,22.74
2019-05-09T22:16:29.418Z,22.73
2019-05-09T22:21:32.883Z,22.74
2019-05-09T22:26:36.369Z,22.74
2019-05-09T22:31:39.845Z,22.73
2019-05-09T22:36:43.327Z,22.74
2019-05-09T22:41:46.812Z,22.74
2019-05-09T22:46:50.281Z,22.74
2019-05-09T22:51:53.749Z,22.74
2019-05-09T22:56:57.228Z,22.74
2019-05-09T23:02:06.536Z,22.74
2019-05-09T23:07:05.944Z,22.73
2019-05-09T23:12:09.455Z,22.73
2019-05-09T23:17:12.931Z,22.73
2019-05-09T23:22:16.482Z,22.73
2019-05-09T23:27:20.325Z,22.73
2019-05-09T23:32:25.442Z,22.73
2019-05-09T23:37:28.917Z,22.72
2019-05-09T23:42:32.387Z,22.72
2019-05-09T23:47:35.859Z,22.72
2019-05-09T23:52:39.328Z,22.73
2019-05-09T23:58:00.593Z,22.71
